createdAt,value
2023-01-13T00:00:00.672Z,85.24
2023-01-13T00:01:00.656Z,85.04
2023-01-13T00:02:00.663Z,85.24
2023-01-13T00:03:00.619Z,84.99
2023-01-13T00:04:00.607Z,85.04
2023-01-13T00:05:00.666Z,84.89
2023-01-13T00:06:00.613Z,84.58
2023-01-13T00:07:00.575Z,84.17
2023-01-13T00:08:00.559Z,84.08
2023-01-13T00:09:00.565Z,83.87
2023-01-13T00:10:00.544Z,84.08
2023-01-13T00:11:00.537Z,83.87
2023-01-13T00:12:00.507Z,84.17
2023-01-13T00:13:00.491Z,83.97
2023-01-13T00:14:00.482Z,84.08
2023-01-13T00:15:00.486Z,84.08
2023-01-13T00:16:00.538Z,83.77
2023-01-13T00:17:00.441Z,83.56
2023-01-13T00:18:00.428Z,83.56
2023-01-13T00:19:00.414Z,83.67
2023-01-13T00:20:00.418Z,83.46
2023-01-13T00:21:00.388Z,83.67
2023-01-13T00:22:00.377Z,83.63
2023-01-13T00:23:00.370Z,83.67
2023-01-13T00:24:00.358Z,83.77
2023-01-13T00:25:00.358Z,83.97
2023-01-13T00:26:00.322Z,84.08
2023-01-13T00:27:00.310Z,83.67
2023-01-13T00:28:00.299Z,83.87
2023-01-13T00:29:00.280Z,83.97
2023-01-13T00:30:00.288Z,83.87
2023-01-13T00:31:00.279Z,83.97
2023-01-13T00:32:00.247Z,83.97
2023-01-13T00:34:00.247Z,83.16
2023-01-13T00:35:00.206Z,83.22
2023-01-13T00:36:00.217Z,83.22
2023-01-13T00:37:00.183Z,83.32
2023-01-13T00:38:00.184Z,83.22
2023-01-13T00:39:00.165Z,82.91
2023-01-13T00:40:00.158Z,83.02
2023-01-13T00:41:00.152Z,82.81
2023-01-13T00:42:00.115Z,83.02
2023-01-13T00:43:00.113Z,82.91
2023-01-13T00:44:00.094Z,83.02
2023-01-13T00:45:00.083Z,83.12
2023-01-13T00:46:00.067Z,82.81
2023-01-13T00:47:00.062Z,82.51
2023-01-13T00:48:00.042Z,82.40
2023-01-13T00:49:00.030Z,82.30
2023-01-13T00:50:00.036Z,82.40
2023-01-13T00:51:00.004Z,82.51
2023-01-13T00:52:00.025Z,82.71
2023-01-13T00:52:59.980Z,82.91
2023-01-13T00:53:59.963Z,82.81
2023-01-13T00:54:59.950Z,82.71
2023-01-13T00:55:59.935Z,82.61
2023-01-13T00:56:59.946Z,82.71
2023-01-13T00:57:59.912Z,82.71
2023-01-13T00:58:59.900Z,82.40
2023-01-13T00:59:59.885Z,82.30
2023-01-13T01:00:59.998Z,82.51
2023-01-13T01:02:00.044Z,82.30
2023-01-13T01:02:59.849Z,82.40
2023-01-13T01:03:59.855Z,82.61
2023-01-13T01:04:59.823Z,82.71
2023-01-13T01:05:59.808Z,82.51
2023-01-13T01:06:59.797Z,82.40
2023-01-13T01:07:59.797Z,82.20
2023-01-13T01:08:59.779Z,82.40
2023-01-13T01:09:59.757Z,82.61
2023-01-13T01:10:59.742Z,82.30
2023-01-13T01:11:59.737Z,82.51
2023-01-13T01:12:59.740Z,82.71
2023-01-13T01:13:59.703Z,82.71
2023-01-13T01:14:59.692Z,82.71
2023-01-13T01:15:59.730Z,83.12
2023-01-13T01:16:59.669Z,83.02
2023-01-13T01:17:59.654Z,82.91
2023-01-13T01:18:59.643Z,83.32
2023-01-13T01:19:59.633Z,83.12
2023-01-13T01:20:59.618Z,83.02
2023-01-13T01:21:59.599Z,83.42
2023-01-13T01:22:59.596Z,83.36
2023-01-13T01:23:59.584Z,83.42
2023-01-13T01:24:59.568Z,83.32
2023-01-13T01:25:59.548Z,83.42
2023-01-13T01:26:59.539Z,83.56
2023-01-13T01:27:59.525Z,83.77
2023-01-13T01:28:59.554Z,83.73
2023-01-13T01:29:59.520Z,83.87
2023-01-13T01:30:59.496Z,83.97
2023-01-13T01:31:59.475Z,83.87
2023-01-13T01:32:59.460Z,83.97
2023-01-13T01:33:59.452Z,83.83
2023-01-13T01:34:59.435Z,83.87
2023-01-13T01:35:59.424Z,83.87
2023-01-13T01:36:59.417Z,83.97
2023-01-13T01:37:59.396Z,84.08
2023-01-13T01:38:59.396Z,84.38
2023-01-13T01:39:59.378Z,84.38
2023-01-13T01:40:59.360Z,84.49
2023-01-13T01:41:59.344Z,84.69
2023-01-13T01:42:59.336Z,84.38
2023-01-13T01:43:59.410Z,83.97
2023-01-13T01:44:59.328Z,84.03
2023-01-13T01:45:59.293Z,84.08
2023-01-13T01:46:59.313Z,84.14
2023-01-13T01:47:59.265Z,84.08
2023-01-13T01:48:59.259Z,83.83
2023-01-13T01:49:59.260Z,83.83
2023-01-13T01:50:59.229Z,83.63
2023-01-13T01:51:59.216Z,83.87
2023-01-13T01:52:59.203Z,83.63
2023-01-13T01:53:59.190Z,83.63
2023-01-13T01:54:59.185Z,83.42
2023-01-13T01:55:59.169Z,83.42
2023-01-13T01:56:59.149Z,83.53
2023-01-13T01:57:59.145Z,83.53
2023-01-13T01:58:59.160Z,83.53
2023-01-13T01:59:59.110Z,83.77
2023-01-13T02:00:59.353Z,83.73
2023-01-13T02:01:59.243Z,83.77
2023-01-13T02:02:59.071Z,83.87
2023-01-13T02:03:59.060Z,83.73
2023-01-13T02:04:59.046Z,83.83
2023-01-13T02:05:59.037Z,84.17
2023-01-13T02:06:59.031Z,83.67
2023-01-13T02:07:59.013Z,83.97
2023-01-13T02:08:58.995Z,84.03
2023-01-13T02:09:58.991Z,83.87
2023-01-13T02:10:58.970Z,83.87
2023-01-13T02:11:58.957Z,83.97
2023-01-13T02:12:58.961Z,83.67
2023-01-13T02:13:58.931Z,83.63
2023-01-13T02:14:58.919Z,83.87
2023-01-13T02:15:58.987Z,83.63
2023-01-13T02:16:58.923Z,83.53
2023-01-13T02:17:58.880Z,84.08
2023-01-13T02:18:58.870Z,84.14
2023-01-13T02:19:58.861Z,84.17
2023-01-13T02:20:58.843Z,84.38
2023-01-13T02:21:58.835Z,84.49
2023-01-13T02:22:58.820Z,84.38
2023-01-13T02:23:58.805Z,84.58
2023-01-13T02:24:58.790Z,84.44
2023-01-13T02:25:58.772Z,84.28
2023-01-13T02:26:58.771Z,84.28
2023-01-13T02:27:58.750Z,84.17
2023-01-13T02:28:58.738Z,84.17
2023-01-13T02:29:58.730Z,83.97
2023-01-13T02:30:58.712Z,84.08
2023-01-13T02:31:58.736Z,83.94
2023-01-13T02:32:58.717Z,84.14
2023-01-13T02:33:58.676Z,83.97
2023-01-13T02:34:58.661Z,84.17
2023-01-13T02:35:58.649Z,84.08
2023-01-13T02:36:58.636Z,84.08
2023-01-13T02:37:58.620Z,84.08
2023-01-13T02:38:58.623Z,83.94
2023-01-13T02:39:58.594Z,83.63
2023-01-13T02:40:58.581Z,83.63
2023-01-13T02:41:58.570Z,83.53
2023-01-13T02:42:58.563Z,83.53
2023-01-13T02:43:58.543Z,83.42
2023-01-13T02:44:58.531Z,83.53
2023-01-13T02:45:58.592Z,83.12
2023-01-13T02:46:58.513Z,83.32
2023-01-13T02:47:58.518Z,83.42
2023-01-13T02:48:58.507Z,83.63
2023-01-13T02:49:58.480Z,83.94
2023-01-13T02:50:58.455Z,83.97
2023-01-13T02:51:58.439Z,84.28
2023-01-13T02:52:58.432Z,84.38
2023-01-13T02:53:58.422Z,84.58
2023-01-13T02:54:58.406Z,84.79
2023-01-13T02:55:58.388Z,84.69
2023-01-13T02:56:58.378Z,84.69
2023-01-13T02:57:58.365Z,84.69
2023-01-13T02:58:58.351Z,84.69
2023-01-13T02:59:58.314Z,84.89
2023-01-13T03:00:58.457Z,84.99
2023-01-13T03:01:58.491Z,84.99
2023-01-13T03:02:58.306Z,85.20
2023-01-13T03:03:58.251Z,85.10
2023-01-13T03:04:58.270Z,85.10
2023-01-13T03:05:58.223Z,85.10
2023-01-13T03:06:58.212Z,85.20
2023-01-13T03:07:58.201Z,85.40
2023-01-13T03:08:58.200Z,85.81
2023-01-13T03:09:58.171Z,85.85
2023-01-13T03:10:58.170Z,85.91
2023-01-13T03:11:58.147Z,85.71
2023-01-13T03:12:58.136Z,86.36
2023-01-13T03:13:58.154Z,86.16
2023-01-13T03:14:58.110Z,86.46
2023-01-13T03:15:58.094Z,86.77
2023-01-13T03:16:58.083Z,86.87
2023-01-13T03:17:58.069Z,86.87
2023-01-13T03:18:58.079Z,86.87
2023-01-13T03:19:58.049Z,87.07
2023-01-13T03:20:58.055Z,87.07
2023-01-13T03:21:58.017Z,87.38
2023-01-13T03:22:58.011Z,86.87
2023-01-13T03:23:57.997Z,86.87
2023-01-13T03:24:57.987Z,86.98
2023-01-13T03:25:57.967Z,86.98
2023-01-13T03:26:57.954Z,86.66
2023-01-13T03:27:57.940Z,86.57
2023-01-13T03:28:57.927Z,86.98
2023-01-13T03:29:57.914Z,87.18
2023-01-13T03:30:57.921Z,87.83
2023-01-13T03:31:57.905Z,88.14
2023-01-13T03:32:57.876Z,88.54
2023-01-13T03:33:57.861Z,88.54
2023-01-13T03:34:57.850Z,88.95
2023-01-13T03:35:57.844Z,89.88
2023-01-13T03:36:57.922Z,90.53
2023-01-13T03:37:57.811Z,90.74
2023-01-13T03:38:57.810Z,90.94
2023-01-13T03:39:57.786Z,91.04
2023-01-13T03:40:57.771Z,91.35
2023-01-13T03:41:57.759Z,91.55
2023-01-13T03:42:57.747Z,91.86
2023-01-13T03:43:57.732Z,92.06
2023-01-13T03:44:57.730Z,92.31
2023-01-13T03:45:57.789Z,92.62
2023-01-13T03:46:57.693Z,92.72
2023-01-13T03:47:57.680Z,92.72
2023-01-13T03:48:57.669Z,92.92
2023-01-13T03:49:57.650Z,93.02
2023-01-13T03:50:57.640Z,93.23
2023-01-13T03:51:57.623Z,93.64
2023-01-13T03:52:57.643Z,94.56
2023-01-13T03:53:57.598Z,95.28
2023-01-13T03:54:57.589Z,95.52
2023-01-13T03:55:57.572Z,95.73
2023-01-13T03:56:57.562Z,95.22
2023-01-13T03:57:57.595Z,94.81
2023-01-13T03:58:57.539Z,94.81
2023-01-13T03:59:57.522Z,94.54
2023-01-13T04:00:57.654Z,94.14
2023-01-13T04:01:57.693Z,94.54
2023-01-13T04:02:57.488Z,94.34
2023-01-13T04:03:57.603Z,94.54
2023-01-13T04:04:57.467Z,94.14
2023-01-13T04:05:57.437Z,93.87
2023-01-13T04:06:57.429Z,93.98
2023-01-13T04:07:57.412Z,94.48
2023-01-13T04:08:57.430Z,94.59
2023-01-13T04:09:57.526Z,94.28
2023-01-13T04:10:57.375Z,94.43
2023-01-13T04:11:57.366Z,94.43
2023-01-13T04:12:57.355Z,93.92
2023-01-13T04:13:57.341Z,93.92
2023-01-13T04:14:57.334Z,94.43
2023-01-13T04:15:57.408Z,94.94
2023-01-13T04:16:57.295Z,95.05
2023-01-13T04:17:57.284Z,95.05
2023-01-13T04:18:57.270Z,95.14
2023-01-13T04:19:57.256Z,95.39
2023-01-13T04:20:57.247Z,95.60
2023-01-13T04:21:57.229Z,95.50
2023-01-13T04:22:57.232Z,95.91
2023-01-13T04:23:57.205Z,96.11
2023-01-13T04:24:57.215Z,96.01
2023-01-13T04:25:57.191Z,96.01
2023-01-13T04:26:57.172Z,95.91
2023-01-13T04:27:57.152Z,95.80
2023-01-13T04:28:57.135Z,95.29
2023-01-13T04:29:57.131Z,94.62
2023-01-13T04:30:57.153Z,94.17
2023-01-13T04:31:57.102Z,93.65
2023-01-13T04:32:57.092Z,92.93
2023-01-13T04:33:57.077Z,93.18
2023-01-13T04:34:57.066Z,92.36
2023-01-13T04:35:57.049Z,90.21
2023-01-13T04:36:57.056Z,91.03
2023-01-13T04:37:57.026Z,90.83
2023-01-13T04:38:57.010Z,90.83
2023-01-13T04:39:57.000Z,87.79
2023-01-13T04:40:57.026Z,87.28
2023-01-13T04:41:56.975Z,86.97
2023-01-13T04:42:56.963Z,87.38
2023-01-13T04:43:56.951Z,87.79
2023-01-13T04:44:56.938Z,89.02
2023-01-13T04:45:56.989Z,89.47
2023-01-13T04:46:56.910Z,90.09
2023-01-13T04:47:56.901Z,90.39
2023-01-13T04:48:56.888Z,91.01
2023-01-13T04:49:56.877Z,91.22
2023-01-13T04:50:56.866Z,90.39
2023-01-13T04:51:56.849Z,89.99
2023-01-13T04:52:56.834Z,89.88
2023-01-13T04:53:56.820Z,89.37
2023-01-13T04:54:56.818Z,89.78
2023-01-13T04:55:56.801Z,90.09
2023-01-13T04:56:56.821Z,91.01
2023-01-13T04:57:56.769Z,91.73
2023-01-13T04:58:56.758Z,92.04
2023-01-13T04:59:56.742Z,92.08
2023-01-13T05:00:56.796Z,92.24
2023-01-13T05:01:56.784Z,92.65
2023-01-13T05:02:56.724Z,92.90
2023-01-13T05:03:56.695Z,93.52
2023-01-13T05:04:56.775Z,92.49
2023-01-13T05:05:56.673Z,92.96
2023-01-13T05:06:56.653Z,93.21
2023-01-13T05:07:56.639Z,93.82
2023-01-13T05:08:56.629Z,93.93
2023-01-13T05:09:56.615Z,93.62
2023-01-13T05:10:56.605Z,94.03
2023-01-13T05:11:56.590Z,93.62
2023-01-13T05:12:56.604Z,93.21
2023-01-13T05:13:56.562Z,93.42
2023-01-13T05:14:56.559Z,93.42
2023-01-13T05:15:56.596Z,93.62
2023-01-13T05:16:56.529Z,92.95
2023-01-13T05:17:56.509Z,92.90
2023-01-13T05:18:56.498Z,92.43
2023-01-13T05:19:56.484Z,91.26
2023-01-13T05:20:56.471Z,91.16
2023-01-13T05:21:56.463Z,90.33
2023-01-13T05:22:56.444Z,90.64
2023-01-13T05:23:56.433Z,90.54
2023-01-13T05:24:56.425Z,90.64
2023-01-13T05:25:56.410Z,90.54
2023-01-13T05:26:56.399Z,90.75
2023-01-13T05:27:56.381Z,90.75
2023-01-13T05:28:56.409Z,90.95
2023-01-13T05:29:56.359Z,91.36
2023-01-13T05:30:56.382Z,91.26
2023-01-13T05:31:56.338Z,91.05
2023-01-13T05:32:56.320Z,91.26
2023-01-13T05:33:56.304Z,91.36
2023-01-13T05:34:56.307Z,90.85
2023-01-13T05:35:56.279Z,90.64
2023-01-13T05:36:56.268Z,90.75
2023-01-13T05:37:56.260Z,90.13
2023-01-13T05:38:56.242Z,89.62
2023-01-13T05:39:56.228Z,90.03
2023-01-13T05:40:56.217Z,90.13
2023-01-13T05:41:56.217Z,90.13
2023-01-13T05:42:56.197Z,90.24
2023-01-13T05:43:56.176Z,89.72
2023-01-13T05:44:56.198Z,88.90
2023-01-13T05:45:56.153Z,88.59
2023-01-13T05:46:56.137Z,88.59
2023-01-13T05:47:56.126Z,87.98
2023-01-13T05:48:56.124Z,87.56
2023-01-13T05:49:56.098Z,87.56
2023-01-13T05:50:56.087Z,87.67
2023-01-13T05:51:56.072Z,86.95
2023-01-13T05:52:56.069Z,86.02
2023-01-13T05:53:56.049Z,86.64
2023-01-13T05:54:56.035Z,86.74
2023-01-13T05:55:56.033Z,87.26
2023-01-13T05:56:56.020Z,87.56
2023-01-13T05:57:55.998Z,88.49
2023-01-13T05:58:55.994Z,88.80
2023-01-13T05:59:55.970Z,88.80
2023-01-13T06:00:56.041Z,88.22
2023-01-13T06:01:55.948Z,87.98
2023-01-13T06:02:55.983Z,88.18
2023-01-13T06:03:55.919Z,88.33
2023-01-13T06:04:55.909Z,88.28
2023-01-13T06:05:55.895Z,88.69
2023-01-13T06:06:55.883Z,88.73
2023-01-13T06:07:55.870Z,88.43
2023-01-13T06:08:55.857Z,88.33
2023-01-13T06:09:55.845Z,88.33
2023-01-13T06:10:55.838Z,88.53
2023-01-13T06:11:55.847Z,88.53
2023-01-13T06:12:55.808Z,88.39
2023-01-13T06:13:55.806Z,88.43
2023-01-13T06:14:55.780Z,88.69
2023-01-13T06:15:55.923Z,88.53
2023-01-13T06:16:55.779Z,88.49
2023-01-13T06:17:55.748Z,88.43
2023-01-13T06:18:55.744Z,88.28
2023-01-13T06:19:55.729Z,88.07
2023-01-13T06:20:55.714Z,87.77
2023-01-13T06:21:55.691Z,87.36
2023-01-13T06:22:55.681Z,87.67
2023-01-13T06:23:55.665Z,87.15
2023-01-13T06:24:55.664Z,87.26
2023-01-13T06:25:55.649Z,87.56
2023-01-13T06:26:55.630Z,86.84
2023-01-13T06:27:55.619Z,86.54
2023-01-13T06:28:55.608Z,87.05
2023-01-13T06:29:55.595Z,86.84
2023-01-13T06:30:55.578Z,86.54
2023-01-13T06:31:55.566Z,86.64
2023-01-13T06:32:55.581Z,86.13
2023-01-13T06:33:55.553Z,85.62
2023-01-13T06:34:55.535Z,85.71
2023-01-13T06:35:55.521Z,85.71
2023-01-13T06:36:55.506Z,85.51
2023-01-13T06:37:55.498Z,85.71
2023-01-13T06:38:55.476Z,85.92
2023-01-13T06:39:55.464Z,86.13
2023-01-13T06:40:55.454Z,85.62
2023-01-13T06:41:55.438Z,85.41
2023-01-13T06:42:55.435Z,85.71
2023-01-13T06:43:55.414Z,85.62
2023-01-13T06:44:55.399Z,85.62
2023-01-13T06:45:55.386Z,85.00
2023-01-13T06:46:55.399Z,85.00
2023-01-13T06:47:55.361Z,85.20
2023-01-13T06:48:55.375Z,85.10
2023-01-13T06:49:55.335Z,85.00
2023-01-13T06:50:55.322Z,84.79
2023-01-13T06:51:55.320Z,85.20
2023-01-13T06:52:55.320Z,85.00
2023-01-13T06:53:55.293Z,85.51
2023-01-13T06:54:55.270Z,85.82
2023-01-13T06:55:55.262Z,85.30
2023-01-13T06:56:55.246Z,85.51
2023-01-13T06:57:55.237Z,85.20
2023-01-13T06:58:55.222Z,85.30
2023-01-13T06:59:55.209Z,85.62
2023-01-13T07:00:55.327Z,85.10
2023-01-13T07:01:55.293Z,85.20
2023-01-13T07:02:55.237Z,85.62
2023-01-13T07:03:55.187Z,85.30
2023-01-13T07:04:55.174Z,84.69
2023-01-13T07:05:55.153Z,84.07
2023-01-13T07:06:55.127Z,84.07
2023-01-13T07:07:55.111Z,84.17
2023-01-13T07:08:55.095Z,83.56
2023-01-13T07:09:55.086Z,83.15
2023-01-13T07:10:55.072Z,82.74
2023-01-13T07:11:55.064Z,83.15
2023-01-13T07:12:55.050Z,82.94
2023-01-13T07:13:55.043Z,82.94
2023-01-13T07:14:55.023Z,82.80
2023-01-13T07:15:55.008Z,82.60
2023-01-13T07:16:54.997Z,83.01
2023-01-13T07:17:54.988Z,82.70
2023-01-13T07:18:54.972Z,82.70
2023-01-13T07:19:54.957Z,82.39
2023-01-13T07:20:55.061Z,82.50
2023-01-13T07:21:54.954Z,82.91
2023-01-13T07:22:54.931Z,82.80
2023-01-13T07:23:54.910Z,83.21
2023-01-13T07:24:54.899Z,83.63
2023-01-13T07:25:54.889Z,83.42
2023-01-13T07:26:54.878Z,83.52
2023-01-13T07:27:54.857Z,83.63
2023-01-13T07:28:54.844Z,83.73
2023-01-13T07:29:54.835Z,83.21
2023-01-13T07:30:54.826Z,83.31
2023-01-13T07:31:54.891Z,83.42
2023-01-13T07:32:54.793Z,82.91
2023-01-13T07:33:54.789Z,83.01
2023-01-13T07:34:54.778Z,83.11
2023-01-13T07:35:54.762Z,82.39
2023-01-13T07:36:54.766Z,82.60
2023-01-13T07:37:54.739Z,82.70
2023-01-13T07:38:55.039Z,82.60
2023-01-13T07:39:54.710Z,82.39
2023-01-13T07:40:54.712Z,82.70
2023-01-13T07:41:54.699Z,82.70
2023-01-13T07:42:54.672Z,82.39
2023-01-13T07:43:54.662Z,82.60
2023-01-13T07:44:54.643Z,82.39
2023-01-13T07:45:54.638Z,82.45
2023-01-13T07:46:54.624Z,82.45
2023-01-13T07:47:54.604Z,82.60
2023-01-13T07:48:54.612Z,82.60
2023-01-13T07:49:54.590Z,82.91
2023-01-13T07:50:54.568Z,82.70
2023-01-13T07:51:54.563Z,82.80
2023-01-13T07:52:54.572Z,82.70
2023-01-13T07:53:54.536Z,82.91
2023-01-13T07:54:54.518Z,83.01
2023-01-13T07:55:54.505Z,83.11
2023-01-13T07:56:54.496Z,83.31
2023-01-13T07:57:54.484Z,82.70
2023-01-13T07:58:54.471Z,82.80
2023-01-13T07:59:54.464Z,82.70
2023-01-13T08:00:54.544Z,82.60
2023-01-13T08:01:54.662Z,82.87
2023-01-13T08:02:54.483Z,82.87
2023-01-13T08:03:54.408Z,82.04
2023-01-13T08:04:54.395Z,82.36
2023-01-13T08:05:54.380Z,82.25
2023-01-13T08:06:54.380Z,82.36
2023-01-13T08:07:54.361Z,82.25
2023-01-13T08:08:54.370Z,82.15
2023-01-13T08:09:54.362Z,81.94
2023-01-13T08:10:54.328Z,81.84
2023-01-13T08:11:54.313Z,81.74
2023-01-13T08:12:56.868Z,81.84
2023-01-13T08:13:54.289Z,82.25
2023-01-13T08:14:54.281Z,82.15
2023-01-13T08:15:54.270Z,82.29
2023-01-13T08:16:54.290Z,82.18
2023-01-13T08:17:54.239Z,82.36
2023-01-13T08:18:54.221Z,82.09
2023-01-13T08:19:54.233Z,82.39
2023-01-13T08:20:54.196Z,82.56
2023-01-13T08:21:54.186Z,82.15
2023-01-13T08:22:54.167Z,81.64
2023-01-13T08:23:54.154Z,81.74
2023-01-13T08:24:54.181Z,81.53
2023-01-13T08:25:54.142Z,81.74
2023-01-13T08:26:54.125Z,81.39
2023-01-13T08:27:54.114Z,81.23
2023-01-13T08:28:54.094Z,81.64
2023-01-13T08:29:54.080Z,81.88
2023-01-13T08:30:54.128Z,81.88
2023-01-13T08:31:54.065Z,81.43
2023-01-13T08:32:54.037Z,81.02
2023-01-13T08:34:54.039Z,79.34
2023-01-13T08:35:54.007Z,78.24
2023-01-13T08:36:53.995Z,78.28
2023-01-13T08:37:53.998Z,77.70
2023-01-13T08:38:53.961Z,76.12
2023-01-13T08:39:53.949Z,75.54
2023-01-13T08:40:53.958Z,74.42
2023-01-13T08:41:53.923Z,74.15
2023-01-13T08:42:53.917Z,75.45
2023-01-13T08:43:53.897Z,77.46
2023-01-13T08:44:53.883Z,78.52
2023-01-13T08:45:53.952Z,79.14
2023-01-13T08:46:53.858Z,79.04
2023-01-13T08:47:53.847Z,78.90
2023-01-13T08:48:53.834Z,78.04
2023-01-13T08:49:53.823Z,76.98
2023-01-13T08:50:53.814Z,75.58
2023-01-13T08:51:53.796Z,73.84
2023-01-13T08:52:53.784Z,75.07
2023-01-13T08:53:53.770Z,74.21
2023-01-13T08:54:53.755Z,73.36
2023-01-13T08:55:53.743Z,73.33
2023-01-13T08:56:53.850Z,72.99
2023-01-13T08:57:58.200Z,72.75
2023-01-13T08:58:53.705Z,71.69
2023-01-13T08:59:53.696Z,71.49
2023-01-13T09:00:53.751Z,71.28
2023-01-13T09:01:53.744Z,70.94
2023-01-13T09:02:53.652Z,70.61
2023-01-13T09:03:53.645Z,70.20
2023-01-13T09:04:53.626Z,69.82
2023-01-13T09:05:53.612Z,70.26
2023-01-13T09:06:53.600Z,69.92
2023-01-13T09:07:53.621Z,69.18
2023-01-13T09:08:53.577Z,69.11
2023-01-13T09:09:53.565Z,68.39
2023-01-13T09:10:53.546Z,68.49
2023-01-13T09:11:53.540Z,68.09
2023-01-13T09:12:53.575Z,68.67
2023-01-13T09:13:53.513Z,69.01
2023-01-13T09:14:53.507Z,69.42
2023-01-13T09:15:53.552Z,69.01
2023-01-13T09:16:53.473Z,68.02
2023-01-13T09:17:53.460Z,68.29
2023-01-13T09:18:53.454Z,67.71
2023-01-13T09:19:53.435Z,69.75
2023-01-13T09:20:53.423Z,71.21
2023-01-13T09:21:53.419Z,71.62
2023-01-13T09:22:53.393Z,71.96
2023-01-13T09:23:53.381Z,73.63
2023-01-13T09:24:53.369Z,73.98
2023-01-13T09:25:53.361Z,74.49
2023-01-13T09:26:53.344Z,74.93
2023-01-13T09:27:53.337Z,74.93
2023-01-13T09:28:53.338Z,75.14
2023-01-13T09:29:53.310Z,74.18
2023-01-13T09:30:53.329Z,70.91
2023-01-13T09:31:53.283Z,69.75
2023-01-13T09:32:53.263Z,68.46
2023-01-13T09:33:53.254Z,67.51
2023-01-13T09:34:53.239Z,66.80
2023-01-13T09:35:53.233Z,66.69
2023-01-13T09:36:53.215Z,67.01
2023-01-13T09:37:53.198Z,66.77
2023-01-13T09:38:53.186Z,66.05
2023-01-13T09:39:53.183Z,66.08
2023-01-13T09:40:53.162Z,67.01
2023-01-13T09:41:53.153Z,66.13
2023-01-13T09:42:53.138Z,65.31
2023-01-13T09:43:53.145Z,65.24
2023-01-13T09:44:53.138Z,65.44
2023-01-13T09:45:53.100Z,65.85
2023-01-13T09:46:53.101Z,65.95
2023-01-13T09:47:53.072Z,65.34
2023-01-13T09:48:53.058Z,65.55
2023-01-13T09:49:53.061Z,65.44
2023-01-13T09:50:53.032Z,64.53
2023-01-13T09:51:53.020Z,65.14
2023-01-13T09:52:53.008Z,65.64
2023-01-13T09:53:52.995Z,64.80
2023-01-13T09:54:52.981Z,64.67
2023-01-13T09:55:53.039Z,64.16
2023-01-13T09:56:52.963Z,63.42
2023-01-13T09:57:52.947Z,63.98
2023-01-13T09:58:52.934Z,64.56
2023-01-13T09:59:52.921Z,65.24
2023-01-13T10:00:52.957Z,64.63
2023-01-13T10:01:52.896Z,64.63
2023-01-13T10:02:52.882Z,65.34
2023-01-13T10:03:52.930Z,64.42
2023-01-13T10:04:52.913Z,65.78
2023-01-13T10:05:52.867Z,65.78
2023-01-13T10:06:52.842Z,65.58
2023-01-13T10:07:52.826Z,64.93
2023-01-13T10:08:52.821Z,63.91
2023-01-13T10:09:52.832Z,64.86
2023-01-13T10:10:52.784Z,64.73
2023-01-13T10:11:52.778Z,63.78
2023-01-13T10:12:52.760Z,63.78
2023-01-13T10:13:52.753Z,64.25
2023-01-13T10:14:52.759Z,64.56
2023-01-13T10:15:52.745Z,64.53
2023-01-13T10:16:52.740Z,64.32
2023-01-13T10:17:52.703Z,65.03
2023-01-13T10:18:52.688Z,66.39
2023-01-13T10:19:52.678Z,65.53
2023-01-13T10:20:52.660Z,66.99
2023-01-13T10:21:52.653Z,67.74
2023-01-13T10:22:52.639Z,69.20
2023-01-13T10:23:52.632Z,68.02
2023-01-13T10:24:52.612Z,67.81
2023-01-13T10:25:52.651Z,68.86
2023-01-13T10:26:52.591Z,69.11
2023-01-13T10:27:52.585Z,67.48
2023-01-13T10:28:52.567Z,66.11
2023-01-13T10:29:52.562Z,65.17
2023-01-13T10:30:52.587Z,65.17
2023-01-13T10:31:52.524Z,64.66
2023-01-13T10:32:52.540Z,64.76
2023-01-13T10:33:52.499Z,64.83
2023-01-13T10:34:52.516Z,65.14
2023-01-13T10:35:52.470Z,63.34
2023-01-13T10:36:52.456Z,63.24
2023-01-13T10:37:52.452Z,63.11
2023-01-13T10:38:52.434Z,63.34
2023-01-13T10:39:52.426Z,64.19
2023-01-13T10:40:52.421Z,63.98
2023-01-13T10:41:52.400Z,63.37
2023-01-13T10:42:52.384Z,64.63
2023-01-13T10:43:52.373Z,64.32
2023-01-13T10:44:52.397Z,64.53
2023-01-13T10:45:52.347Z,64.63
2023-01-13T10:46:52.391Z,64.09
2023-01-13T10:47:52.321Z,63.86
2023-01-13T10:48:52.339Z,63.75
2023-01-13T10:49:52.300Z,63.45
2023-01-13T10:50:52.288Z,64.26
2023-01-13T10:51:52.359Z,63.14
2023-01-13T10:52:52.264Z,63.04
2023-01-13T10:53:52.249Z,64.09
2023-01-13T10:54:52.245Z,63.27
2023-01-13T10:55:54.798Z,63.23
2023-01-13T10:56:52.218Z,64.42
2023-01-13T10:57:52.204Z,63.91
2023-01-13T10:58:52.209Z,63.20
2023-01-13T10:59:52.179Z,62.20
2023-01-13T11:00:52.266Z,61.28
2023-01-13T11:01:53.869Z,62.70
2023-01-13T11:02:52.258Z,62.70
2023-01-13T11:03:52.127Z,62.84
2023-01-13T11:04:52.218Z,62.02
2023-01-13T11:05:52.113Z,62.96
2023-01-13T11:06:52.124Z,62.56
2023-01-13T11:07:52.095Z,62.53
2023-01-13T11:08:52.068Z,61.44
2023-01-13T11:09:52.059Z,61.64
2023-01-13T11:10:52.046Z,61.85
2023-01-13T11:11:52.033Z,62.02
2023-01-13T11:12:52.029Z,60.16
2023-01-13T11:13:52.010Z,60.26
2023-01-13T11:14:52.016Z,59.96
2023-01-13T11:15:52.062Z,59.83
2023-01-13T11:16:53.740Z,60.13
2023-01-13T11:17:51.961Z,60.26
2023-01-13T11:18:52.113Z,61.23
2023-01-13T11:19:51.974Z,61.41
2023-01-13T11:20:51.961Z,60.64
2023-01-13T11:21:51.919Z,60.77
2023-01-13T11:22:51.917Z,61.87
2023-01-13T11:23:51.886Z,63.90
2023-01-13T11:24:51.891Z,65.05
2023-01-13T11:25:51.860Z,66.18
2023-01-13T11:26:51.855Z,65.26
2023-01-13T11:27:51.832Z,65.16
2023-01-13T11:28:51.820Z,65.26
2023-01-13T11:29:51.813Z,65.36
2023-01-13T11:30:51.801Z,64.89
2023-01-13T11:31:51.797Z,65.33
2023-01-13T11:32:51.784Z,64.38
2023-01-13T11:33:51.761Z,65.02
2023-01-13T11:34:51.749Z,65.67
2023-01-13T11:35:51.740Z,66.38
2023-01-13T11:36:51.770Z,66.38
2023-01-13T11:37:51.706Z,66.49
2023-01-13T11:38:51.695Z,66.90
2023-01-13T11:39:51.679Z,66.90
2023-01-13T11:40:51.669Z,66.31
2023-01-13T11:41:51.655Z,66.11
2023-01-13T11:42:51.645Z,65.46
2023-01-13T11:43:51.627Z,65.87
2023-01-13T11:44:51.617Z,65.52
2023-01-13T11:45:51.603Z,66.52
2023-01-13T11:46:51.652Z,66.72
2023-01-13T11:47:51.589Z,67.13
2023-01-13T11:48:51.576Z,66.21
2023-01-13T11:49:51.552Z,66.04
2023-01-13T11:50:51.563Z,66.24
2023-01-13T11:52:51.537Z,66.34
2023-01-13T11:53:51.503Z,66.41
2023-01-13T11:54:51.486Z,64.66
2023-01-13T11:55:51.474Z,61.99
2023-01-13T11:56:51.462Z,60.16
2023-01-13T11:57:51.448Z,61.74
2023-01-13T11:58:51.587Z,62.31
2023-01-13T11:59:51.418Z,63.56
2023-01-13T12:00:51.412Z,63.56
2023-01-13T12:01:51.402Z,64.00
2023-01-13T12:02:51.483Z,64.41
2023-01-13T12:03:51.374Z,64.72
2023-01-13T12:04:51.362Z,64.95
2023-01-13T12:05:51.344Z,65.29
2023-01-13T12:06:51.338Z,65.60
2023-01-13T12:07:51.317Z,66.34
2023-01-13T12:08:51.329Z,64.50
2023-01-13T12:09:51.296Z,64.27
2023-01-13T12:10:51.282Z,64.88
2023-01-13T12:11:51.267Z,66.65
2023-01-13T12:12:51.253Z,68.52
2023-01-13T12:13:51.245Z,69.03
2023-01-13T12:14:51.241Z,69.34
2023-01-13T12:15:51.215Z,69.85
2023-01-13T12:16:51.305Z,70.06
2023-01-13T12:17:51.188Z,69.65
2023-01-13T12:18:51.176Z,69.14
2023-01-13T12:19:51.188Z,68.52
2023-01-13T12:20:51.151Z,68.49
2023-01-13T12:21:51.134Z,67.70
2023-01-13T12:22:51.126Z,67.57
2023-01-13T12:23:51.116Z,66.75
2023-01-13T12:24:51.140Z,67.26
2023-01-13T12:25:51.090Z,67.06
2023-01-13T12:26:51.081Z,66.78
2023-01-13T12:27:51.062Z,66.55
2023-01-13T12:28:51.156Z,66.14
2023-01-13T12:29:51.043Z,65.76
2023-01-13T12:30:51.036Z,65.32
2023-01-13T12:31:51.123Z,65.42
2023-01-13T12:32:50.994Z,65.83
2023-01-13T12:33:50.981Z,66.24
2023-01-13T12:34:50.974Z,66.24
2023-01-13T12:35:50.963Z,66.24
2023-01-13T12:36:50.941Z,66.78
2023-01-13T12:37:50.930Z,66.88
2023-01-13T12:38:50.948Z,66.78
2023-01-13T12:39:50.914Z,66.99
2023-01-13T12:40:50.923Z,67.19
2023-01-13T12:41:50.880Z,67.40
2023-01-13T12:42:50.871Z,67.37
2023-01-13T12:43:50.853Z,65.77
2023-01-13T12:44:50.839Z,63.33
2023-01-13T12:45:50.906Z,63.43
2023-01-13T12:46:50.824Z,62.21
2023-01-13T12:47:50.825Z,63.56
2023-01-13T12:48:50.797Z,63.59
2023-01-13T12:49:50.772Z,63.13
2023-01-13T12:50:50.764Z,61.23
2023-01-13T12:51:50.762Z,62.37
2023-01-13T12:52:50.748Z,63.65
2023-01-13T12:53:50.720Z,64.81
2023-01-13T12:54:50.708Z,65.76